Weather Forecast for Al Maktoum Airport  
Wednesday, December 13, 2017 (12:51 UTC)
Al Maktoum International Airport
Last Updated: 13-Dec-2017 (12:50Z)
Wind Dir/Speed: N at 11 kt
Temperature: 23.6°C
Rel. Humidity: 44 %
Pressure: 1016.6 hPa
Visibility: 5000 m
  • METAR OMDW 131230Z 35013KT 8000 NSC 24/11 Q1016 TEMPO 4000 BLDU
DWC AIRPORT WEATHER FORECAST FOR 30 HOUR:
DWC TAF:
TAF OMDW 131056Z 1312/1418 36015KT 8000 NSC 
 PROB30 TEMPO 1312/1315 1500 BLDU 
 BECMG 1315/1317 06008KT 
 BECMG 1403/1405 16010KT 
 BECMG 1411/1413 36012KT 
 BECMG 1415/1417 09008KT=
VALID FROM:
2017-12-13 12:00Z
VALID TILL:
2017-12-14 18:00Z
SURFACE WIND:
N'LY 15KT

BECOMING NE'LY 08KT FROM 1500Z-1700Z TODAY

BECOMING S'LY 10KT FROM 0300Z-0500Z THURSDAY

BECOMING N'LY 12KT FROM 1100Z-1300Z THURSDAY

BECOMING E'LY 08KT FROM 1500Z-1700Z THURSDAY.
VISIBILITY:
07-10 KM,
30% PROBABILITY OF 1500 M AT TIMES BETWEEN 1200Z-1500Z TODAY,
10% PROBABILITY OF 3000 M AT TIMES BETWEEN 1100Z-1500Z THURSDAY.

WEATHER:
FINE,
30% PROBABILITY OF BLOWING DUST AT TIMES BETWEEN 1200Z-1500Z TODAY,
10% PROBABILITY OF DUST AT TIMES BETWEEN 1100Z-1500Z THURSDAY.
CLOUD:
NIL SIGNIFICANT.
TEMPERATURE:
MIN TEMPERATURE 14°C AROUND 0330Z THURSDAY

MAX TEMPERATURE 26°C AROUND 1030Z THURSDAY.
HUMIDITY:
MAX HUMIDITY 75% AROUND 0330Z THURSDAY

MIN HUMIDITY 30% AROUND 1030Z THURSDAY.
WIND SHEAR:
NIL SIGNIFICANT.

TEMPERATURE INVERSION:
RISK OF 08°C SURFACE TEMPERATURE INVERSION BETWEEN 0000Z-0330Z THURSDAY.
COMMENTS:
NIL.